Аэропорт: Алматы. Алма-Ата

ICAO: UAAA

METAR:
2018/11/19 10:00
UAAA 191000Z 01001MPS 3200 FU SCT100 BKN200 M02/M08 Q1027 R05L/91//60 R05R/91//50 NOSIG
METAR:
2018/11/19 06:18
TAF TAF UAAA 190500Z 1906/2006 06005MPS 3000 BR FU BKN010 BKN100 TX02/1908Z TNM05/2001Z 
      TEMPO 1906/1908 1000 
      BECMG 1912/1913 16005MPS 1500 
      TEMPO 1913/1916 0500 FZFG 
      TEMPO 1916/2004 0300 FZFG VV003